Ballerina — SKNY — position and weather

sailwx.info

Track history (hours):
 
Tides and Currents Weather Stations Pressure Air Temp Water Temp Dewpoint Dewpoint Depression Visibility Wind Speed Wind Dir Waves Ship Positions

Ballerina

Last reported at 2016-Aug-27 16:30 UTC. Time now 2016-Aug-27 22:15 UTC.
Position N 59°23' E 018°06'.

Type: Passenger vessel. MMSI: 265550720.

Date/timePositionNaut miles runAvg speedWind from/ knotsBaromVisibWave heightAir tempDewpointWater temp
2016-Aug-27 16:30N 59°23' E 018°06'1 0.8
2016-Aug-27 15:33N 59°22' E 018°06'1 0.9
2016-Aug-27 14:14N 59°23' E 018°06'1 0.7
2016-Aug-27 12:33N 59°22' E 018°06'0 0.3
2016-Aug-27 11:11N 59°22' E 018°06'1 1.2
2016-Aug-27 10:13N 59°23' E 018°06'1 0.5
2016-Aug-27 08:33N 59°22' E 018°06'2 1.3
2016-Aug-27 07:18N 59°24' E 018°06'1 0.1
2016-Aug-26 17:31N 59°22' E 018°06'1 0.7
2016-Aug-26 16:32N 59°22' E 018°06'2 1.6
2016-Aug-26 15:19N 59°24' E 018°06'2 0.9
2016-Aug-26 13:33N 59°22' E 018°06'0 0.1
2016-Aug-26 08:14N 59°22' E 018°06'2 2.2
2016-Aug-26 07:17N 59°24' E 018°07'2 2.8
2016-Aug-26 06:32N 59°22' E 018°06'1 0.6
2016-Aug-26 04:15N 59°23' E 018°06'1 0.1
2016-Aug-25 16:04N 59°22' E 018°06'0 0.3
2016-Aug-25 15:05N 59°22' E 018°06'0 0.7
2016-Aug-25 14:32N 59°23' E 018°06'0 0.1
2016-Aug-25 08:07N 59°22' E 018°06'1 0.2
2016-Aug-25 04:16N 59°23' E 018°05'1 0.1
2016-Aug-24 17:29N 59°22' E 018°06'1 0.6
2016-Aug-24 16:30N 59°22' E 018°06'3 2.9
2016-Aug-24 15:33N 59°24' E 018°08'2 1.5
2016-Aug-24 14:33N 59°23' E 018°05'2 1.9
2016-Aug-24 13:33N 59°22' E 018°06'2 2.0
2016-Aug-24 12:33N 59°20' E 018°05'0 0.0
2016-Aug-24 11:31N 59°20' E 018°05'0 0.0
2016-Aug-24 10:31N 59°20' E 018°05'0 0.0
2016-Aug-24 09:31N 59°20' E 018°05'2 1.7
2016-Aug-24 08:33N 59°19' E 018°08'3 1.9
2016-Aug-24 07:03N 59°22' E 018°06'0 0.8
2016-Aug-24 06:27N 59°22' E 018°06'1 0.5
2016-Aug-24 04:14N 59°23' E 018°06'0 0.0
2016-Aug-23 17:32N 59°23' E 018°06'1 0.9
2016-Aug-23 16:10N 59°22' E 018°06'2 1.7
2016-Aug-23 15:14N 59°23' E 018°05'1 0.8
2016-Aug-23 14:33N 59°23' E 018°06'1 0.2
2016-Aug-23 08:14N 59°22' E 018°06'1 1.4
2016-Aug-23 07:13N 59°23' E 018°06'1 1.9
2016-Aug-23 06:28N 59°22' E 018°06'1 1.4
2016-Aug-23 05:32N 59°23' E 018°06'1 0.5
2016-Aug-23 04:23N 59°23' E 018°05'1 0.1
2016-Aug-22 17:33N 59°22' E 018°06'0 0.3
2016-Aug-22 16:33N 59°22' E 018°06'2 1.6
2016-Aug-22 15:20N 59°24' E 018°06'2 0.9
2016-Aug-22 13:34N 59°22' E 018°06'0 0.1
2016-Aug-22 08:14N 59°22' E 018°06'1 0.7
2016-Aug-22 07:05N 59°22' E 018°06'1 1.5
2016-Aug-22 06:32N 59°22' E 018°06'1 1.5
2016-Aug-22 05:33N 59°23' E 018°05'0 0.0
2016-Aug-22 04:18N 59°23' E 018°06'1 0.2
2016-Aug-21 21:24N 59°21' E 018°06'0 0.0
2016-Aug-21 17:33N 59°21' E 018°06'1 1.1
2016-Aug-21 16:24N 59°23' E 018°06'1 0.8
2016-Aug-21 15:19N 59°23' E 018°06'0 0.1
2016-Aug-21 13:20N 59°24' E 018°06'2 2.6
2016-Aug-21 12:32N 59°21' E 018°06'2 2.3
2016-Aug-21 11:29N 59°20' E 018°10'4 2.8
2016-Aug-21 10:11N 59°23' E 018°06'1 0.3
2016-Aug-21 08:05N 59°22' E 018°06'1 0.9
2016-Aug-21 07:12N 59°23' E 018°05'1 0.1
2016-Aug-20 17:21N 59°22' E 018°06'1 1.5
2016-Aug-20 16:26N 59°23' E 018°06'0 0.1
2016-Aug-20 15:11N 59°23' E 018°06'0 0.1
2016-Aug-20 13:12N 59°23' E 018°06'2 0.9
2016-Aug-20 11:28N 59°21' E 018°06'2 1.8
2016-Aug-20 10:17N 59°24' E 018°06'2 1.0
2016-Aug-20 08:16N 59°21' E 018°06'1 1.3
2016-Aug-20 07:12N 59°23' E 018°05'1 0.1
2016-Aug-19 17:22N 59°22' E 018°06'2 1.8
2016-Aug-19 16:29N 59°23' E 018°05'0 0.2
2016-Aug-19 15:14N 59°23' E 018°06'0 0.1
2016-Aug-19 13:12N 59°23' E 018°06'1 1.3
2016-Aug-19 12:13N 59°21' E 018°06'1 1.4
2016-Aug-19 11:13N 59°23' E 018°06'1 0.5
2016-Aug-19 08:13N 59°22' E 018°06'0 0.4
2016-Aug-19 07:04N 59°22' E 018°06'0 0.8
2016-Aug-19 06:31N 59°22' E 018°06'1 1.4
2016-Aug-19 05:32N 59°23' E 018°05'1 0.6
2016-Aug-19 04:23N 59°23' E 018°06'1 0.1
2016-Aug-18 17:15N 59°22' E 018°06'1 0.9
2016-Aug-18 16:28N 59°23' E 018°05'0 0.0
2016-Aug-18 15:13N 59°23' E 018°06'1 0.3
2016-Aug-18 12:04N 59°22' E 018°06'0 0.0
2016-Aug-18 08:08N 59°22' E 018°06'0 0.0
2016-Aug-18 06:22N 59°22' E 018°06'1 1.0
2016-Aug-18 05:33N 59°23' E 018°06'0 0.2
2016-Aug-18 04:17N 59°23' E 018°05'0 0.0
2016-Aug-17 17:18N 59°23' E 018°06'  
Track history (hours):
 
Tides and Currents Weather Stations Pressure Air Temp Water Temp Dewpoint Dewpoint Depression Visibility Wind Speed Wind Dir Waves Ship Positions

Ballerina

Last reported at 2016-Aug-27 16:30 UTC. Time now 2016-Aug-27 22:15 UTC.
Position N 59°23' E 018°06'.

Type: Passenger vessel. MMSI: 265550720.

Date/timePositionNaut miles runAvg speedWind from/ knotsBaromVisibWave heightAir tempDewpointWater temp
2016-Aug-27 16:30N 59°23' E 018°06'1 0.8
2016-Aug-27 15:33N 59°22' E 018°06'1 0.9
2016-Aug-27 14:14N 59°23' E 018°06'1 0.7
2016-Aug-27 12:33N 59°22' E 018°06'0 0.3
2016-Aug-27 11:11N 59°22' E 018°06'1 1.2
2016-Aug-27 10:13N 59°23' E 018°06'1 0.5
2016-Aug-27 08:33N 59°22' E 018°06'2 1.3
2016-Aug-27 07:18N 59°24' E 018°06'1 0.1
2016-Aug-26 17:31N 59°22' E 018°06'1 0.7
2016-Aug-26 16:32N 59°22' E 018°06'2 1.6
2016-Aug-26 15:19N 59°24' E 018°06'2 0.9
2016-Aug-26 13:33N 59°22' E 018°06'0 0.1
2016-Aug-26 08:14N 59°22' E 018°06'2 2.2
2016-Aug-26 07:17N 59°24' E 018°07'2 2.8
2016-Aug-26 06:32N 59°22' E 018°06'1 0.6
2016-Aug-26 04:15N 59°23' E 018°06'1 0.1
2016-Aug-25 16:04N 59°22' E 018°06'0 0.3
2016-Aug-25 15:05N 59°22' E 018°06'0 0.7
2016-Aug-25 14:32N 59°23' E 018°06'0 0.1
2016-Aug-25 08:07N 59°22' E 018°06'1 0.2
2016-Aug-25 04:16N 59°23' E 018°05'1 0.1
2016-Aug-24 17:29N 59°22' E 018°06'1 0.6
2016-Aug-24 16:30N 59°22' E 018°06'3 2.9
2016-Aug-24 15:33N 59°24' E 018°08'2 1.5
2016-Aug-24 14:33N 59°23' E 018°05'2 1.9
2016-Aug-24 13:33N 59°22' E 018°06'2 2.0
2016-Aug-24 12:33N 59°20' E 018°05'0 0.0
2016-Aug-24 11:31N 59°20' E 018°05'0 0.0
2016-Aug-24 10:31N 59°20' E 018°05'0 0.0
2016-Aug-24 09:31N 59°20' E 018°05'2 1.7
2016-Aug-24 08:33N 59°19' E 018°08'3 1.9
2016-Aug-24 07:03N 59°22' E 018°06'0 0.8
2016-Aug-24 06:27N 59°22' E 018°06'1 0.5
2016-Aug-24 04:14N 59°23' E 018°06'0 0.0
2016-Aug-23 17:32N 59°23' E 018°06'1 0.9
2016-Aug-23 16:10N 59°22' E 018°06'2 1.7
2016-Aug-23 15:14N 59°23' E 018°05'1 0.8
2016-Aug-23 14:33N 59°23' E 018°06'1 0.2
2016-Aug-23 08:14N 59°22' E 018°06'1 1.4
2016-Aug-23 07:13N 59°23' E 018°06'1 1.9
2016-Aug-23 06:28N 59°22' E 018°06'1 1.4
2016-Aug-23 05:32N 59°23' E 018°06'1 0.5
2016-Aug-23 04:23N 59°23' E 018°05'1 0.1
2016-Aug-22 17:33N 59°22' E 018°06'0 0.3
2016-Aug-22 16:33N 59°22' E 018°06'2 1.6
2016-Aug-22 15:20N 59°24' E 018°06'2 0.9
2016-Aug-22 13:34N 59°22' E 018°06'0 0.1
2016-Aug-22 08:14N 59°22' E 018°06'1 0.7
2016-Aug-22 07:05N 59°22' E 018°06'1 1.5
2016-Aug-22 06:32N 59°22' E 018°06'1 1.5
2016-Aug-22 05:33N 59°23' E 018°05'0 0.0
2016-Aug-22 04:18N 59°23' E 018°06'1 0.2
2016-Aug-21 21:24N 59°21' E 018°06'0 0.0
2016-Aug-21 17:33N 59°21' E 018°06'1 1.1
2016-Aug-21 16:24N 59°23' E 018°06'1 0.8
2016-Aug-21 15:19N 59°23' E 018°06'0 0.1
2016-Aug-21 13:20N 59°24' E 018°06'2 2.6
2016-Aug-21 12:32N 59°21' E 018°06'2 2.3
2016-Aug-21 11:29N 59°20' E 018°10'4 2.8
2016-Aug-21 10:11N 59°23' E 018°06'1 0.3
2016-Aug-21 08:05N 59°22' E 018°06'1 0.9
2016-Aug-21 07:12N 59°23' E 018°05'1 0.1
2016-Aug-20 17:21N 59°22' E 018°06'1 1.5
2016-Aug-20 16:26N 59°23' E 018°06'0 0.1
2016-Aug-20 15:11N 59°23' E 018°06'0 0.1
2016-Aug-20 13:12N 59°23' E 018°06'2 0.9
2016-Aug-20 11:28N 59°21' E 018°06'2 1.8
2016-Aug-20 10:17N 59°24' E 018°06'2 1.0
2016-Aug-20 08:16N 59°21' E 018°06'1 1.3
2016-Aug-20 07:12N 59°23' E 018°05'1 0.1
2016-Aug-19 17:22N 59°22' E 018°06'2 1.8
2016-Aug-19 16:29N 59°23' E 018°05'0 0.2
2016-Aug-19 15:14N 59°23' E 018°06'0 0.1
2016-Aug-19 13:12N 59°23' E 018°06'1 1.3
2016-Aug-19 12:13N 59°21' E 018°06'1 1.4
2016-Aug-19 11:13N 59°23' E 018°06'1 0.5
2016-Aug-19 08:13N 59°22' E 018°06'0 0.4
2016-Aug-19 07:04N 59°22' E 018°06'0 0.8
2016-Aug-19 06:31N 59°22' E 018°06'1 1.4
2016-Aug-19 05:32N 59°23' E 018°05'1 0.6
2016-Aug-19 04:23N 59°23' E 018°06'1 0.1
2016-Aug-18 17:15N 59°22' E 018°06'1 0.9
2016-Aug-18 16:28N 59°23' E 018°05'0 0.0
2016-Aug-18 15:13N 59°23' E 018°06'1 0.3
2016-Aug-18 12:04N 59°22' E 018°06'0 0.0
2016-Aug-18 08:08N 59°22' E 018°06'0 0.0
2016-Aug-18 06:22N 59°22' E 018°06'1 1.0
2016-Aug-18 05:33N 59°23' E 018°06'0 0.2
2016-Aug-18 04:17N 59°23' E 018°05'0 0.0
2016-Aug-17 17:18N 59°23' E 018°06'  

Dump ship's entire track history